Time;durP1;ratioP1;P1;durP2;ratioP2;P2;SDS_P1;SDS_P2;PMS_P1;PMS_P2;Temp;Humidity;BMP_temperature;BMP_pressure;BME280_temperature;BME280_humidity;BME280_pressure;Samples;Min_cycle;Max_cycle;Signal;HPM_P1;HPM_P2
2023/12/22 00:01:05;;;;;;;17.85;9.32;;;;;;;;;;2092421;28;20029;-75
2023/12/22 00:02:28;;;;;;;19.60;8.93;;;;;;;;;;2092855;28;20419;-75
2023/12/22 00:03:49;;;;;;;15.93;8.35;;;;;;;;;;2095005;28;20041;-75
2023/12/22 00:05:10;;;;;;;15.95;7.80;;;;;;;;;;2097010;28;20028;-75
2023/12/22 00:06:31;;;;;;;13.88;8.38;;;;;;;;;;2088254;28;20033;-75
2023/12/22 00:07:52;;;;;;;11.63;7.55;;;;;;;;;;2084815;28;20029;-75
2023/12/22 00:09:13;;;;;;;14.88;7.70;;;;;;;;;;2088586;28;20674;-76
2023/12/22 00:10:34;;;;;;;15.43;7.40;;;;;;;;;;2101267;28;20051;-75
2023/12/22 00:11:55;;;;;;;24.70;8.98;;;;;;;;;;2102903;28;20028;-76
2023/12/22 00:13:16;;;;;;;13.52;8.10;;;;;;;;;;2097209;28;20032;-76
2023/12/22 00:14:37;;;;;;;11.45;8.00;;;;;;;;;;2097996;28;20036;-75
2023/12/22 00:15:58;;;;;;;13.90;7.57;;;;;;;;;;2099092;28;20037;-76
2023/12/22 00:17:19;;;;;;;11.27;7.63;;;;;;;;;;2089708;28;20435;-75
2023/12/22 00:18:40;;;;;;;20.27;8.30;;;;;;;;;;2087321;28;20025;-76
2023/12/22 00:20:02;;;;;;;15.10;8.70;;;;;;;;;;2090041;28;20040;-76
2023/12/22 00:21:23;;;;;;;12.80;7.07;;;;;;;;;;2095358;28;20112;-75
2023/12/22 00:22:44;;;;;;;18.55;7.45;;;;;;;;;;2103129;28;20027;-75
2023/12/22 00:24:05;;;;;;;15.45;9.02;;;;;;;;;;2105581;28;20040;-76
2023/12/22 00:25:26;;;;;;;10.18;7.30;;;;;;;;;;2104763;28;20039;-76
2023/12/22 00:26:47;;;;;;;12.70;8.43;;;;;;;;;;2098881;28;20059;-76
2023/12/22 00:28:08;;;;;;;14.05;7.97;;;;;;;;;;2089437;28;20393;-76
2023/12/22 00:29:29;;;;;;;20.77;8.15;;;;;;;;;;2087176;28;20036;-76
2023/12/22 00:30:50;;;;;;;14.40;8.55;;;;;;;;;;2088704;28;20032;-76
2023/12/22 00:32:11;;;;;;;14.23;8.27;;;;;;;;;;2088951;28;20397;-76
2023/12/22 00:33:31;;;;;;;19.83;8.13;;;;;;;;;;2078908;28;20033;-76
2023/12/22 00:34:52;;;;;;;21.42;9.02;;;;;;;;;;2085558;28;20037;-76
2023/12/22 00:36:13;;;;;;;20.35;8.93;;;;;;;;;;2086762;28;20037;-76
2023/12/22 00:37:34;;;;;;;18.60;7.90;;;;;;;;;;2088692;28;20028;-76
2023/12/22 00:38:55;;;;;;;18.77;8.55;;;;;;;;;;2085943;28;20106;-76
2023/12/22 00:40:16;;;;;;;11.80;7.53;;;;;;;;;;2089938;28;20461;-75
2023/12/22 00:41:38;;;;;;;8.45;7.32;;;;;;;;;;2080568;28;20038;-75
2023/12/22 00:42:59;;;;;;;18.85;7.72;;;;;;;;;;2086589;28;20025;-76
2023/12/22 00:44:20;;;;;;;17.02;8.43;;;;;;;;;;2088206;28;20045;-75
2023/12/22 00:45:41;;;;;;;17.48;7.82;;;;;;;;;;2094412;28;20029;-75
2023/12/22 00:47:02;;;;;;;23.27;8.45;;;;;;;;;;2088995;28;20108;-75
2023/12/22 00:48:23;;;;;;;19.40;8.27;;;;;;;;;;2095092;28;20511;-75
2023/12/22 00:49:44;;;;;;;16.67;8.35;;;;;;;;;;2081738;28;20521;-75
2023/12/22 00:51:08;;;;;;;15.95;9.15;;;;;;;;;;2092435;28;20029;-75
2023/12/22 00:52:29;;;;;;;14.80;7.82;;;;;;;;;;2097623;28;20396;-75
2023/12/22 00:53:49;;;;;;;19.95;8.32;;;;;;;;;;2101793;28;20036;-76
2023/12/22 00:55:10;;;;;;;12.90;8.23;;;;;;;;;;2101922;28;20031;-75
2023/12/22 00:56:31;;;;;;;13.93;7.32;;;;;;;;;;2098143;28;20028;-76
2023/12/22 00:57:52;;;;;;;12.77;7.70;;;;;;;;;;2096501;28;20032;-76
2023/12/22 00:59:13;;;;;;;15.48;8.52;;;;;;;;;;2089105;28;20029;-75
2023/12/22 01:00:34;;;;;;;15.70;7.45;;;;;;;;;;2098083;28;20044;-76
2023/12/22 01:01:55;;;;;;;24.33;8.75;;;;;;;;;;2097066;28;20032;-75
2023/12/22 01:03:16;;;;;;;13.68;8.60;;;;;;;;;;2102654;28;20059;-76
2023/12/22 01:04:37;;;;;;;14.05;8.85;;;;;;;;;;2097342;28;20503;-76
2023/12/22 01:05:57;;;;;;;22.67;8.70;;;;;;;;;;2093889;28;20055;-76
2023/12/22 01:07:18;;;;;;;11.80;7.75;;;;;;;;;;2102729;28;20025;-76
2023/12/22 01:08:39;;;;;;;20.92;8.45;;;;;;;;;;2089241;28;20021;-76
2023/12/22 01:10:01;;;;;;;23.00;8.63;;;;;;;;;;2094559;28;20407;-76
2023/12/22 01:11:22;;;;;;;21.38;8.90;;;;;;;;;;2101298;28;20376;-76
2023/12/22 01:12:43;;;;;;;16.92;8.73;;;;;;;;;;2106378;28;20093;-75
2023/12/22 01:14:04;;;;;;;16.95;7.70;;;;;;;;;;2104677;28;20047;-76
2023/12/22 01:15:25;;;;;;;13.48;7.93;;;;;;;;;;2105782;28;20024;-76
2023/12/22 01:16:46;;;;;;;23.95;8.70;;;;;;;;;;2097483;28;20028;-76
2023/12/22 01:18:06;;;;;;;16.50;8.90;;;;;;;;;;2104238;28;20020;-76
2023/12/22 01:19:27;;;;;;;18.02;8.63;;;;;;;;;;2097492;28;20440;-76
2023/12/22 01:20:49;;;;;;;16.35;7.68;;;;;;;;;;2095390;28;20103;-76
2023/12/22 01:22:10;;;;;;;21.95;8.27;;;;;;;;;;2097329;28;20024;-75
2023/12/22 01:23:31;;;;;;;23.25;9.40;;;;;;;;;;2101368;28;20039;-76
2023/12/22 01:24:52;;;;;;;17.38;8.93;;;;;;;;;;2096520;28;20032;-76
2023/12/22 01:26:12;;;;;;;20.15;9.05;;;;;;;;;;2102605;28;20038;-76
2023/12/22 01:27:33;;;;;;;20.02;7.00;;;;;;;;;;2104646;28;20138;-77
2023/12/22 01:28:54;;;;;;;20.80;9.20;;;;;;;;;;2104522;28;20040;-76
2023/12/22 01:30:15;;;;;;;21.83;8.73;;;;;;;;;;2096650;28;20028;-77
2023/12/22 01:31:36;;;;;;;16.27;8.55;;;;;;;;;;2102581;28;20031;-76
2023/12/22 01:32:57;;;;;;;15.70;9.40;;;;;;;;;;2104100;28;20058;-76
2023/12/22 01:34:18;;;;;;;16.27;8.93;;;;;;;;;;2105339;28;20044;-76
2023/12/22 01:35:39;;;;;;;19.08;8.40;;;;;;;;;;2098153;28;20044;-77
2023/12/22 01:37:00;;;;;;;18.05;9.05;;;;;;;;;;2102334;28;20032;-77
2023/12/22 01:38:21;;;;;;;14.57;8.15;;;;;;;;;;2097106;28;20484;-76
2023/12/22 01:39:41;;;;;;;24.15;9.82;;;;;;;;;;2094833;28;20036;-76
2023/12/22 01:41:02;;;;;;;16.15;8.77;;;;;;;;;;2094400;28;20040;-77
2023/12/22 01:42:23;;;;;;;18.02;8.50;;;;;;;;;;2102488;28;20032;-77
2023/12/22 01:43:44;;;;;;;23.83;10.20;;;;;;;;;;2091009;28;20032;-76
2023/12/22 01:45:06;;;;;;;16.85;8.90;;;;;;;;;;2100575;28;20039;-76
2023/12/22 01:46:27;;;;;;;18.90;8.65;;;;;;;;;;2102510;28;20040;-76
2023/12/22 01:47:49;;;;;;;22.65;9.45;;;;;;;;;;2097454;28;20031;-77
2023/12/22 01:49:10;;;;;;;23.52;9.70;;;;;;;;;;2101321;28;20027;-77
2023/12/22 01:50:31;;;;;;;21.98;9.10;;;;;;;;;;2097183;28;20033;-76
2023/12/22 01:51:52;;;;;;;19.08;8.70;;;;;;;;;;2102053;28;20033;-76
2023/12/22 01:53:13;;;;;;;19.35;9.63;;;;;;;;;;2096556;28;20036;-76
2023/12/22 01:54:34;;;;;;;23.90;9.73;;;;;;;;;;2093167;28;20063;-76
2023/12/22 01:55:56;;;;;;;18.38;9.70;;;;;;;;;;2102871;28;20028;-76
2023/12/22 01:57:18;;;;;;;28.40;9.38;;;;;;;;;;2097306;28;20029;-77
2023/12/22 01:58:39;;;;;;;20.30;9.15;;;;;;;;;;2102780;28;20081;-76
2023/12/22 02:00:00;;;;;;;16.70;9.27;;;;;;;;;;2096091;28;20454;-76
2023/12/22 02:01:22;;;;;;;18.20;8.35;;;;;;;;;;2099452;28;20028;-75
2023/12/22 02:02:43;;;;;;;20.35;9.43;;;;;;;;;;2104966;28;20035;-76
2023/12/22 02:04:05;;;;;;;14.70;7.55;;;;;;;;;;2096344;28;20044;-76
2023/12/22 02:05:26;;;;;;;27.50;8.90;;;;;;;;;;2094760;28;20070;-76
2023/12/22 02:06:46;;;;;;;14.48;8.70;;;;;;;;;;2096874;28;20036;-76
2023/12/22 02:08:08;;;;;;;17.17;8.43;;;;;;;;;;2095714;28;20037;-76
2023/12/22 02:09:28;;;;;;;14.48;8.32;;;;;;;;;;2093856;28;20045;-76
2023/12/22 02:10:49;;;;;;;45.92;13.38;;;;;;;;;;2102537;28;20445;-77
2023/12/22 02:12:10;;;;;;;24.50;8.77;;;;;;;;;;2095944;28;20032;-77
2023/12/22 02:13:31;;;;;;;19.10;8.60;;;;;;;;;;2102024;28;20032;-76
2023/12/22 02:14:52;;;;;;;16.00;8.82;;;;;;;;;;2097866;28;20037;-76
2023/12/22 02:16:30;;;;;;;24.67;8.93;;;;;;;;;;2094389;28;20033;-76
2023/12/22 02:17:58;;;;;;;18.42;8.32;;;;;;;;;;2092214;28;20039;-76
2023/12/22 02:19:35;;;;;;;17.75;7.97;;;;;;;;;;2095728;28;20400;-76
2023/12/22 02:20:55;;;;;;;19.33;8.32;;;;;;;;;;2088733;28;20072;-76
2023/12/22 02:22:16;;;;;;;25.38;9.15;;;;;;;;;;2092081;28;20522;-76
2023/12/22 02:23:37;;;;;;;24.02;8.35;;;;;;;;;;2094328;28;20041;-76
2023/12/22 02:24:58;;;;;;;19.15;8.73;;;;;;;;;;2093966;28;20028;-77
2023/12/22 02:26:27;;;;;;;21.88;8.52;;;;;;;;;;2094391;28;20523;-76
2023/12/22 02:27:49;;;;;;;22.20;8.90;;;;;;;;;;2095280;28;20423;-77
2023/12/22 02:29:14;;;;;;;16.73;9.88;;;;;;;;;;2094537;28;20022;-76
2023/12/22 02:30:42;;;;;;;20.17;8.68;;;;;;;;;;2098023;28;20028;-76
2023/12/22 02:32:06;;;;;;;21.08;8.73;;;;;;;;;;2097535;28;20032;-76
2023/12/22 02:33:28;;;;;;;17.13;8.27;;;;;;;;;;2088104;28;20491;-76
2023/12/22 02:34:51;;;;;;;18.63;9.27;;;;;;;;;;2079713;28;20038;-76
2023/12/22 02:36:12;;;;;;;17.48;8.52;;;;;;;;;;2092431;28;20036;-76
2023/12/22 02:37:34;;;;;;;23.30;8.10;;;;;;;;;;2096042;28;20024;-76
2023/12/22 02:38:56;;;;;;;14.18;7.80;;;;;;;;;;2097380;28;20165;-77
2023/12/22 02:40:17;;;;;;;25.73;8.77;;;;;;;;;;2088850;28;20028;-76
2023/12/22 02:41:38;;;;;;;18.50;9.77;;;;;;;;;;2086309;28;20025;-76
2023/12/22 02:43:00;;;;;;;17.63;9.35;;;;;;;;;;2085453;28;20033;-76
2023/12/22 02:44:22;;;;;;;21.42;8.65;;;;;;;;;;2089087;28;20477;-76
2023/12/22 02:45:42;;;;;;;23.15;8.93;;;;;;;;;;2086396;28;20032;-77
2023/12/22 02:47:03;;;;;;;20.02;8.43;;;;;;;;;;2085934;28;20496;-75
2023/12/22 02:48:24;;;;;;;15.93;8.40;;;;;;;;;;2092906;28;20036;-76
2023/12/22 02:49:45;;;;;;;24.80;8.73;;;;;;;;;;2087973;28;20571;-75
2023/12/22 02:51:06;;;;;;;18.02;8.23;;;;;;;;;;2084685;28;20041;-76
2023/12/22 02:52:27;;;;;;;19.92;8.10;;;;;;;;;;2079083;28;20119;-77
2023/12/22 02:53:48;;;;;;;22.10;7.68;;;;;;;;;;2085875;28;20033;-76
2023/12/22 02:55:09;;;;;;;19.98;7.95;;;;;;;;;;2094377;28;20029;-76
2023/12/22 02:56:30;;;;;;;21.40;8.02;;;;;;;;;;2088530;28;20396;-76
2023/12/22 02:57:50;;;;;;;18.02;8.63;;;;;;;;;;2084989;28;20029;-76
2023/12/22 02:59:11;;;;;;;12.00;7.40;;;;;;;;;;2087247;28;20021;-77
2023/12/22 03:00:32;;;;;;;16.33;8.65;;;;;;;;;;2088694;28;20412;-76
2023/12/22 03:01:53;;;;;;;17.85;8.25;;;;;;;;;;2089373;28;20036;-76
2023/12/22 03:03:14;;;;;;;16.00;8.98;;;;;;;;;;2080899;28;20040;-76
2023/12/22 03:04:35;;;;;;;19.85;8.95;;;;;;;;;;2085961;28;20044;-76
2023/12/22 03:05:56;;;;;;;28.55;9.23;;;;;;;;;;2089390;28;20032;-75
2023/12/22 03:07:17;;;;;;;16.48;7.70;;;;;;;;;;2089460;28;20497;-76
2023/12/22 03:08:38;;;;;;;20.73;9.00;;;;;;;;;;2096535;28;20032;-76
2023/12/22 03:09:59;;;;;;;19.98;8.20;;;;;;;;;;2088268;28;20496;-76
2023/12/22 03:11:19;;;;;;;15.68;8.25;;;;;;;;;;2088442;28;20040;-76
2023/12/22 03:12:40;;;;;;;22.00;8.65;;;;;;;;;;2080405;28;20040;-76
2023/12/22 03:14:01;;;;;;;19.35;8.70;;;;;;;;;;2085966;28;20036;-76
2023/12/22 03:15:22;;;;;;;22.50;8.50;;;;;;;;;;2087776;28;20390;-76
2023/12/22 03:16:43;;;;;;;15.30;8.48;;;;;;;;;;2080355;28;20041;-76
2023/12/22 03:18:04;;;;;;;16.65;7.95;;;;;;;;;;2085196;28;20029;-76
2023/12/22 03:19:25;;;;;;;21.60;8.57;;;;;;;;;;2089812;28;20033;-77
2023/12/22 03:20:46;;;;;;;17.23;7.90;;;;;;;;;;2089179;28;20043;-76
2023/12/22 03:22:07;;;;;;;15.95;9.18;;;;;;;;;;2089186;28;20408;-76
2023/12/22 03:23:27;;;;;;;10.80;9.02;;;;;;;;;;2095147;28;20029;-76
2023/12/22 03:24:48;;;;;;;17.35;8.05;;;;;;;;;;2082583;28;20041;-76
2023/12/22 03:26:09;;;;;;;18.63;8.80;;;;;;;;;;2095251;28;20033;-75
2023/12/22 03:27:30;;;;;;;20.80;8.73;;;;;;;;;;2096042;28;20496;-76
2023/12/22 03:28:51;;;;;;;18.00;8.15;;;;;;;;;;2096921;28;20064;-76
2023/12/22 03:30:12;;;;;;;19.83;8.30;;;;;;;;;;2095432;28;20386;-76
2023/12/22 03:31:33;;;;;;;21.52;8.43;;;;;;;;;;2097322;28;20028;-76
2023/12/22 03:32:54;;;;;;;20.75;9.07;;;;;;;;;;2096185;28;20029;-76
2023/12/22 03:34:15;;;;;;;28.48;8.70;;;;;;;;;;2101830;28;20476;-76
2023/12/22 03:35:36;;;;;;;16.02;8.60;;;;;;;;;;2089028;28;20041;-76
2023/12/22 03:36:57;;;;;;;17.85;8.32;;;;;;;;;;2093424;28;20037;-76
2023/12/22 03:38:18;;;;;;;17.98;8.55;;;;;;;;;;2096867;28;20020;-76
2023/12/22 03:39:38;;;;;;;19.77;9.52;;;;;;;;;;2088145;28;20367;-76
2023/12/22 03:40:59;;;;;;;17.08;7.95;;;;;;;;;;2086825;28;20079;-76
2023/12/22 03:42:20;;;;;;;24.60;8.65;;;;;;;;;;2079573;28;20060;-75
2023/12/22 03:43:41;;;;;;;18.27;8.82;;;;;;;;;;2086084;28;20028;-77
2023/12/22 03:45:02;;;;;;;15.75;7.97;;;;;;;;;;2103050;28;20264;-76
2023/12/22 03:46:23;;;;;;;26.65;9.35;;;;;;;;;;2096392;28;20028;-76
2023/12/22 03:47:44;;;;;;;18.35;8.57;;;;;;;;;;2103251;28;20028;-76
2023/12/22 03:49:05;;;;;;;17.80;7.75;;;;;;;;;;2105679;28;20100;-77
2023/12/22 03:50:26;;;;;;;13.20;8.35;;;;;;;;;;2107281;28;20024;-76
2023/12/22 03:51:47;;;;;;;14.15;8.65;;;;;;;;;;2106514;28;20021;-77
2023/12/22 03:53:08;;;;;;;11.65;8.10;;;;;;;;;;2101656;28;20024;-77
2023/12/22 03:54:29;;;;;;;20.75;8.95;;;;;;;;;;2091106;28;20511;-77
2023/12/22 03:55:50;;;;;;;19.00;8.45;;;;;;;;;;2089158;28;20178;-76
2023/12/22 03:57:10;;;;;;;15.38;8.45;;;;;;;;;;2098336;28;20036;-76
2023/12/22 03:58:31;;;;;;;23.65;8.82;;;;;;;;;;2097999;28;20032;-76
2023/12/22 03:59:52;;;;;;;13.13;8.60;;;;;;;;;;2090164;28;20028;-76
2023/12/22 04:01:16;;;;;;;17.73;8.70;;;;;;;;;;2095493;28;20033;-76
2023/12/22 04:02:37;;;;;;;17.80;8.18;;;;;;;;;;2089511;28;20107;-76
2023/12/22 04:03:58;;;;;;;19.17;8.20;;;;;;;;;;2096001;28;20029;-76
2023/12/22 04:05:19;;;;;;;22.77;8.23;;;;;;;;;;2104882;28;20040;-76
2023/12/22 04:06:40;;;;;;;21.42;7.35;;;;;;;;;;2097400;28;20032;-76
2023/12/22 04:08:01;;;;;;;16.92;8.52;;;;;;;;;;2086402;28;20463;-77
2023/12/22 04:09:22;;;;;;;17.33;8.73;;;;;;;;;;2091507;28;20045;-76
2023/12/22 04:10:44;;;;;;;20.92;8.35;;;;;;;;;;2090046;28;20036;-76
2023/12/22 04:12:05;;;;;;;;;;;;;;;;;;2090621;28;20113;-76
2023/12/22 04:13:26;;;;;;;18.63;8.35;;;;;;;;;;2089711;28;20329;-76
2023/12/22 04:14:46;;;;;;;9.65;7.10;;;;;;;;;;2089644;28;20349;-76
2023/12/22 04:16:07;;;;;;;15.98;8.68;;;;;;;;;;2082572;28;20033;-76
2023/12/22 04:17:28;;;;;;;15.82;8.52;;;;;;;;;;2081946;28;20030;-77
2023/12/22 04:18:49;;;;;;;25.90;8.90;;;;;;;;;;2090504;28;20048;-76
2023/12/22 04:20:10;;;;;;;19.63;9.02;;;;;;;;;;2085719;28;20033;-76
2023/12/22 04:21:31;;;;;;;18.50;8.90;;;;;;;;;;2081680;28;20026;-77
2023/12/22 04:22:52;;;;;;;17.42;8.27;;;;;;;;;;2084689;28;20026;-76
2023/12/22 04:24:13;;;;;;;19.45;8.10;;;;;;;;;;2093012;28;20029;-76
2023/12/22 04:25:33;;;;;;;19.55;8.45;;;;;;;;;;2091303;28;20396;-77
2023/12/22 04:26:54;;;;;;;20.63;8.45;;;;;;;;;;2088486;28;20025;-77
2023/12/22 04:28:15;;;;;;;15.68;8.82;;;;;;;;;;2089927;28;20032;-76
2023/12/22 04:29:36;;;;;;;26.80;9.00;;;;;;;;;;2089924;28;20485;-76
2023/12/22 04:30:57;;;;;;;19.83;7.30;;;;;;;;;;2082312;28;20056;-77
2023/12/22 04:32:18;;;;;;;17.30;8.55;;;;;;;;;;2081409;28;20028;-77
2023/12/22 04:33:39;;;;;;;25.58;8.50;;;;;;;;;;2079452;28;20033;-77
2023/12/22 04:35:00;;;;;;;17.30;7.97;;;;;;;;;;2077747;28;20040;-77
2023/12/22 04:36:21;;;;;;;15.13;7.80;;;;;;;;;;2077995;28;20041;-76
2023/12/22 04:37:42;;;;;;;18.40;8.27;;;;;;;;;;2081900;28;20029;-77
2023/12/22 04:39:03;;;;;;;16.27;8.30;;;;;;;;;;2081226;28;20028;-76
2023/12/22 04:40:24;;;;;;;15.65;8.63;;;;;;;;;;2082872;28;20093;-76
2023/12/22 04:41:44;;;;;;;22.92;9.02;;;;;;;;;;2094863;28;20033;-76
2023/12/22 04:43:05;;;;;;;22.52;8.90;;;;;;;;;;2087964;28;20032;-77
2023/12/22 04:44:26;;;;;;;21.25;8.20;;;;;;;;;;2089947;28;20044;-77
2023/12/22 04:45:47;;;;;;;23.98;8.35;;;;;;;;;;2088883;28;20435;-76
2023/12/22 04:47:08;;;;;;;17.98;7.70;;;;;;;;;;2089622;28;20041;-76
2023/12/22 04:48:29;;;;;;;20.67;9.15;;;;;;;;;;2089426;28;20028;-76
2023/12/22 04:49:50;;;;;;;16.42;8.15;;;;;;;;;;2094292;28;20404;-76
2023/12/22 04:51:10;;;;;;;13.68;8.02;;;;;;;;;;2092055;28;20028;-76
2023/12/22 04:52:31;;;;;;;17.08;8.25;;;;;;;;;;2087959;28;20032;-77
2023/12/22 04:53:52;;;;;;;18.73;9.00;;;;;;;;;;2089527;28;20033;-76
2023/12/22 04:55:13;;;;;;;18.63;8.55;;;;;;;;;;2095245;28;20043;-76
2023/12/22 04:56:34;;;;;;;18.42;9.02;;;;;;;;;;2093947;28;20433;-77
2023/12/22 04:57:55;;;;;;;19.27;9.35;;;;;;;;;;2089813;28;20033;-77
2023/12/22 04:59:16;;;;;;;19.98;8.10;;;;;;;;;;2095640;28;20385;-76
2023/12/22 05:00:37;;;;;;;22.33;8.48;;;;;;;;;;2096637;28;20021;-76
2023/12/22 05:01:58;;;;;;;16.38;7.97;;;;;;;;;;2097521;28;20028;-77
2023/12/22 05:03:19;;;;;;;24.48;8.43;;;;;;;;;;2097625;28;20029;-76
2023/12/22 05:04:40;;;;;;;18.45;8.60;;;;;;;;;;2096282;28;20409;-77
2023/12/22 05:06:00;;;;;;;18.30;8.50;;;;;;;;;;2086051;28;20028;-76
2023/12/22 05:07:21;;;;;;;17.10;7.18;;;;;;;;;;2086797;28;20037;-76
2023/12/22 05:08:42;;;;;;;21.83;8.60;;;;;;;;;;2082063;28;20485;-76
2023/12/22 05:10:03;;;;;;;13.52;8.18;;;;;;;;;;2079894;28;20045;-76
2023/12/22 05:11:24;;;;;;;23.70;8.75;;;;;;;;;;2077581;28;20029;-76
2023/12/22 05:12:45;;;;;;;23.55;8.43;;;;;;;;;;2077175;28;20033;-76
2023/12/22 05:14:06;;;;;;;17.13;8.25;;;;;;;;;;2072195;28;20069;-76
2023/12/22 05:15:27;;;;;;;11.55;8.10;;;;;;;;;;2083168;28;20397;-76
2023/12/22 05:16:48;;;;;;;20.08;8.38;;;;;;;;;;2081213;28;20042;-77
2023/12/22 05:18:09;;;;;;;15.18;7.95;;;;;;;;;;2085733;28;20052;-76
2023/12/22 05:19:29;;;;;;;12.30;8.18;;;;;;;;;;2089931;28;20052;-76
2023/12/22 05:20:52;;;;;;;19.50;8.30;;;;;;;;;;2080986;28;20022;-76
2023/12/22 05:22:12;;;;;;;10.30;7.43;;;;;;;;;;2086022;28;20029;-77
2023/12/22 05:23:33;;;;;;;14.93;7.57;;;;;;;;;;2088346;28;20396;-76
2023/12/22 05:24:54;;;;;;;14.75;8.98;;;;;;;;;;2080583;28;20038;-76
2023/12/22 05:26:18;;;;;;;21.35;8.43;;;;;;;;;;2077560;28;20041;-76
2023/12/22 05:27:41;;;;;;;19.30;8.30;;;;;;;;;;2086826;28;20048;-76
2023/12/22 05:29:02;;;;;;;14.95;7.63;;;;;;;;;;2088397;28;20032;-76
2023/12/22 05:30:23;;;;;;;12.82;8.02;;;;;;;;;;2075535;28;20091;-75
2023/12/22 05:31:44;;;;;;;22.83;8.10;;;;;;;;;;2075775;28;20037;-76
2023/12/22 05:33:05;;;;;;;15.32;7.70;;;;;;;;;;2083405;28;20595;-76
2023/12/22 05:34:25;;;;;;;14.57;8.18;;;;;;;;;;2093710;28;20054;-75
2023/12/22 05:35:46;;;;;;;16.30;7.55;;;;;;;;;;2096213;28;20063;-76
2023/12/22 05:37:07;;;;;;;18.27;7.68;;;;;;;;;;2089658;28;20076;-76
2023/12/22 05:38:28;;;;;;;13.70;8.07;;;;;;;;;;2080414;28;20030;-76
2023/12/22 05:39:49;;;;;;;16.25;8.77;;;;;;;;;;2080248;28;20026;-75
2023/12/22 05:41:10;;;;;;;14.50;7.82;;;;;;;;;;2086509;28;20096;-75
2023/12/22 05:42:31;;;;;;;14.80;8.02;;;;;;;;;;2081323;28;20382;-75
2023/12/22 05:43:52;;;;;;;13.77;8.15;;;;;;;;;;2089917;28;20036;-76
2023/12/22 05:45:13;;;;;;;9.70;6.73;;;;;;;;;;2088210;28;20048;-75
2023/12/22 05:46:40;;;;;;;14.90;7.80;;;;;;;;;;2078222;28;21017;-76
2023/12/22 05:48:01;;;;;;;15.35;8.52;;;;;;;;;;2090765;28;20039;-76
2023/12/22 05:49:23;;;;;;;11.25;7.65;;;;;;;;;;2080664;28;20045;-75
2023/12/22 05:50:44;;;;;;;11.48;7.57;;;;;;;;;;2085591;28;20098;-76
2023/12/22 05:52:05;;;;;;;16.15;8.05;;;;;;;;;;2080696;28;20041;-76
2023/12/22 05:53:26;;;;;;;19.20;7.70;;;;;;;;;;2082357;28;20044;-76
2023/12/22 05:54:47;;;;;;;18.33;8.45;;;;;;;;;;2075278;28;20049;-77
2023/12/22 05:56:25;;;;;;;13.63;7.78;;;;;;;;;;2076960;28;20508;-76
2023/12/22 05:57:46;;;;;;;18.02;8.15;;;;;;;;;;2080472;28;20033;-76
2023/12/22 05:59:07;;;;;;;15.13;7.80;;;;;;;;;;2081198;28;20080;-76
2023/12/22 06:00:28;;;;;;;15.10;7.40;;;;;;;;;;2088564;28;20079;-76
2023/12/22 06:01:53;;;;;;;16.00;7.30;;;;;;;;;;2089220;28;20036;-76
2023/12/22 06:03:14;;;;;;;16.40;8.43;;;;;;;;;;2079135;28;20424;-76
2023/12/22 06:04:35;;;;;;;13.02;7.90;;;;;;;;;;2086019;28;20084;-76
2023/12/22 06:05:56;;;;;;;20.85;7.63;;;;;;;;;;2088061;28;20044;-75
2023/12/22 06:07:17;;;;;;;22.50;8.55;;;;;;;;;;2089231;28;20025;-76
2023/12/22 06:08:38;;;;;;;20.73;8.75;;;;;;;;;;2079569;28;20034;-76
2023/12/22 06:09:59;;;;;;;27.92;9.13;;;;;;;;;;2072480;28;20184;-75
2023/12/22 06:11:20;;;;;;;21.88;9.65;;;;;;;;;;2077697;28;20083;-76
2023/12/22 06:12:41;;;;;;;27.85;9.70;;;;;;;;;;2078640;28;20413;-75
2023/12/22 06:14:02;;;;;;;19.77;9.20;;;;;;;;;;2077093;28;20068;-76
2023/12/22 06:15:22;;;;;;;24.25;9.98;;;;;;;;;;2077675;28;20044;-75
2023/12/22 06:16:43;;;;;;;22.42;9.05;;;;;;;;;;2078311;28;20092;-76
2023/12/22 06:18:04;;;;;;;17.55;8.90;;;;;;;;;;2077655;28;20025;-75
2023/12/22 06:19:28;;;;;;;33.15;9.85;;;;;;;;;;2086380;28;20388;-75
2023/12/22 06:20:49;;;;;;;29.50;10.38;;;;;;;;;;2080359;28;20026;-76
2023/12/22 06:22:10;;;;;;;27.05;9.65;;;;;;;;;;2077444;28;20036;-76
2023/12/22 06:23:31;;;;;;;24.90;9.43;;;;;;;;;;2085208;28;20115;-75
2023/12/22 06:24:52;;;;;;;23.42;10.00;;;;;;;;;;2084915;28;20094;-76
2023/12/22 06:26:13;;;;;;;24.92;10.93;;;;;;;;;;2086839;28;20099;-76
2023/12/22 06:27:34;;;;;;;32.83;9.60;;;;;;;;;;2082096;28;20037;-75
2023/12/22 06:28:55;;;;;;;21.23;9.48;;;;;;;;;;2072543;28;20038;-75
2023/12/22 06:30:17;;;;;;;23.03;9.97;;;;;;;;;;2077974;28;20410;-75
2023/12/22 06:31:38;;;;;;;23.27;9.50;;;;;;;;;;2088797;28;20552;-75
2023/12/22 06:32:59;;;;;;;31.48;10.27;;;;;;;;;;2080711;28;20093;-76
2023/12/22 06:34:20;;;;;;;21.10;9.20;;;;;;;;;;2078879;28;20034;-77
2023/12/22 06:35:41;;;;;;;29.70;11.45;;;;;;;;;;2078590;28;20055;-75
2023/12/22 06:37:02;;;;;;;24.35;10.05;;;;;;;;;;2085493;28;20127;-77
2023/12/22 06:38:23;;;;;;;27.02;9.60;;;;;;;;;;2088825;28;20441;-76
2023/12/22 06:39:44;;;;;;;28.67;9.70;;;;;;;;;;2087762;28;20462;-75
2023/12/22 06:41:05;;;;;;;22.75;10.25;;;;;;;;;;2088470;28;20028;-75
2023/12/22 06:42:25;;;;;;;26.27;10.23;;;;;;;;;;2087963;28;20083;-76
2023/12/22 06:43:46;;;;;;;27.52;10.63;;;;;;;;;;2093339;28;20677;-76
2023/12/22 06:45:07;;;;;;;25.42;9.93;;;;;;;;;;2083247;28;20025;-76
2023/12/22 06:46:28;;;;;;;25.08;9.60;;;;;;;;;;2087684;28;20067;-75
2023/12/22 06:47:49;;;;;;;24.83;9.20;;;;;;;;;;2085047;28;20025;-77
2023/12/22 06:49:10;;;;;;;26.05;9.63;;;;;;;;;;2093716;28;20024;-76
2023/12/22 06:50:31;;;;;;;30.52;9.85;;;;;;;;;;2087553;28;20401;-76
2023/12/22 06:51:52;;;;;;;27.48;10.63;;;;;;;;;;2093943;28;20028;-76
2023/12/22 06:53:13;;;;;;;34.78;10.77;;;;;;;;;;2096674;28;20041;-76
2023/12/22 06:54:34;;;;;;;36.50;10.68;;;;;;;;;;2095972;28;20037;-75
2023/12/22 06:55:55;;;;;;;33.80;11.18;;;;;;;;;;2088545;28;20095;-76
2023/12/22 06:57:16;;;;;;;38.47;11.07;;;;;;;;;;2078831;28;20102;-75
2023/12/22 06:58:37;;;;;;;28.90;10.10;;;;;;;;;;2085681;28;20481;-75
2023/12/22 06:59:58;;;;;;;29.40;11.38;;;;;;;;;;2082529;28;20045;-76
2023/12/22 07:01:22;;;;;;;35.72;10.40;;;;;;;;;;2074257;28;20038;-76
2023/12/22 07:02:44;;;;;;;29.00;9.77;;;;;;;;;;2069521;28;20445;-76
2023/12/22 07:04:06;;;;;;;36.05;10.85;;;;;;;;;;2068585;28;20029;-76
2023/12/22 07:05:29;;;;;;;36.17;11.18;;;;;;;;;;2076798;28;20481;-75
2023/12/22 07:06:50;;;;;;;27.45;10.73;;;;;;;;;;2079954;28;20037;-75
2023/12/22 07:08:12;;;;;;;35.78;11.10;;;;;;;;;;2078818;28;20505;-75
2023/12/22 07:09:33;;;;;;;32.10;10.18;;;;;;;;;;2091341;28;20064;-75
2023/12/22 07:10:54;;;;;;;29.77;10.85;;;;;;;;;;2088162;28;20036;-74
2023/12/22 07:12:15;;;;;;;30.48;10.02;;;;;;;;;;2085447;28;20432;-75
2023/12/22 07:13:36;;;;;;;35.72;10.98;;;;;;;;;;2085025;28;20041;-75
2023/12/22 07:14:57;;;;;;;46.92;10.98;;;;;;;;;;2093911;28;20040;-75
2023/12/22 07:16:18;;;;;;;28.35;10.43;;;;;;;;;;2082716;28;20042;-74
2023/12/22 07:17:39;;;;;;;34.05;10.38;;;;;;;;;;2083677;28;20040;-75
2023/12/22 07:19:00;;;;;;;33.65;10.95;;;;;;;;;;2088960;28;20022;-76
2023/12/22 07:20:21;;;;;;;34.38;10.98;;;;;;;;;;2096652;28;20051;-76
2023/12/22 07:21:42;;;;;;;38.53;9.55;;;;;;;;;;2082639;28;20033;-76
2023/12/22 07:23:03;;;;;;;33.25;11.68;;;;;;;;;;2082606;28;20037;-76
2023/12/22 07:24:24;;;;;;;30.65;11.27;;;;;;;;;;2080805;28;20544;-77
2023/12/22 07:25:44;;;;;;;34.50;10.35;;;;;;;;;;2087168;28;20033;-76
2023/12/22 07:27:06;;;;;;;31.95;10.90;;;;;;;;;;2082111;28;20115;-76
2023/12/22 07:28:26;;;;;;;37.67;11.73;;;;;;;;;;2079806;28;20042;-76
2023/12/22 07:29:47;;;;;;;36.53;10.50;;;;;;;;;;2087202;28;20037;-76
2023/12/22 07:31:08;;;;;;;43.38;11.70;;;;;;;;;;2083970;28;20025;-76
2023/12/22 07:32:30;;;;;;;37.45;11.77;;;;;;;;;;2098147;28;20441;-76
2023/12/22 07:33:51;;;;;;;42.03;11.90;;;;;;;;;;2098610;28;20032;-76
2023/12/22 07:35:12;;;;;;;30.88;10.73;;;;;;;;;;2079423;28;20037;-76
2023/12/22 07:36:33;;;;;;;36.03;11.45;;;;;;;;;;2079825;28;20037;-76
2023/12/22 07:37:54;;;;;;;42.70;12.05;;;;;;;;;;2087222;28;20029;-76
2023/12/22 07:39:15;;;;;;;35.10;11.13;;;;;;;;;;2090264;28;20041;-76
2023/12/22 07:40:36;;;;;;;32.75;10.05;;;;;;;;;;2082377;28;20029;-75
2023/12/22 07:41:57;;;;;;;30.02;10.85;;;;;;;;;;2080682;28;20026;-77
2023/12/22 07:43:18;;;;;;;34.00;9.63;;;;;;;;;;2082144;28;20120;-76
2023/12/22 07:44:39;;;;;;;33.92;9.90;;;;;;;;;;2081782;28;20017;-76
2023/12/22 07:46:00;;;;;;;32.20;10.88;;;;;;;;;;2078336;28;20037;-76
2023/12/22 07:47:20;;;;;;;29.77;10.75;;;;;;;;;;2087683;28;20477;-76
2023/12/22 07:48:41;;;;;;;39.53;11.90;;;;;;;;;;2094289;28;20044;-75
2023/12/22 07:50:03;;;;;;;37.30;11.23;;;;;;;;;;2089699;28;20078;-76
2023/12/22 07:51:24;;;;;;;29.35;10.07;;;;;;;;;;2088192;28;20025;-77
2023/12/22 07:52:44;;;;;;;33.90;12.00;;;;;;;;;;2094500;28;20055;-76
2023/12/22 07:54:06;;;;;;;35.05;11.23;;;;;;;;;;2089740;28;20064;-76
2023/12/22 07:55:27;;;;;;;30.00;10.05;;;;;;;;;;2078666;28;20041;-76
2023/12/22 07:56:48;;;;;;;31.73;10.82;;;;;;;;;;2082659;28;20480;-77
2023/12/22 07:58:09;;;;;;;44.80;11.15;;;;;;;;;;2094896;28;20035;-75
2023/12/22 07:59:29;;;;;;;29.52;10.50;;;;;;;;;;2098514;28;20025;-77